createdAt,value
2022-08-26T00:00:20.839Z,5.32
2022-08-26T00:02:49.202Z,4.32
2022-08-26T00:05:18.150Z,4.68
2022-08-26T00:07:46.707Z,5.78
2022-08-26T00:10:15.358Z,7.18
2022-08-26T00:12:45.318Z,9.30
2022-08-26T00:15:19.164Z,6.55
2022-08-26T00:17:49.829Z,9.50
2022-08-26T00:20:22.826Z,6.57
2022-08-26T00:22:51.549Z,4.53
2022-08-26T00:25:20.539Z,7.00
2022-08-26T00:27:50.670Z,5.45
2022-08-26T00:30:26.597Z,6.90
2022-08-26T00:32:56.069Z,5.25
2022-08-26T00:35:25.616Z,5.20
2022-08-26T00:37:57.418Z,9.40
2022-08-26T00:40:31.417Z,8.05
2022-08-26T00:43:02.351Z,8.30
2022-08-26T00:45:45.111Z,7.20
2022-08-26T00:48:17.034Z,4.55
2022-08-26T00:50:54.397Z,5.78
2022-08-26T00:53:26.299Z,4.22
2022-08-26T00:56:02.569Z,11.55
2022-08-26T00:58:35.092Z,6.80
2022-08-26T01:01:04.081Z,6.75
2022-08-26T01:03:35.026Z,20.23
2022-08-26T01:06:05.278Z,5.88
2022-08-26T01:08:42.060Z,6.93
2022-08-26T01:11:12.555Z,6.32
2022-08-26T01:13:43.336Z,4.03
2022-08-26T01:16:15.613Z,7.28
2022-08-26T01:18:46.943Z,7.85
2022-08-26T01:21:27.202Z,4.82
2022-08-26T01:23:58.913Z,7.50
2022-08-26T01:26:34.433Z,10.93
2022-08-26T01:29:07.929Z,5.47
2022-08-26T01:31:42.335Z,5.13
2022-08-26T01:34:18.832Z,6.03
2022-08-26T01:36:51.582Z,6.18
2022-08-26T01:39:21.901Z,9.10
2022-08-26T01:41:53.855Z,6.20
2022-08-26T01:44:26.833Z,5.45
2022-08-26T01:46:58.061Z,4.72
2022-08-26T01:49:27.882Z,5.25
2022-08-26T01:52:02.020Z,5.18
2022-08-26T01:54:34.264Z,7.85
2022-08-26T01:57:03.845Z,7.75
2022-08-26T01:59:32.758Z,7.38
2022-08-26T02:02:01.593Z,6.10
2022-08-26T02:04:34.839Z,7.05
2022-08-26T02:07:07.761Z,7.38
2022-08-26T02:09:41.357Z,4.10
2022-08-26T02:12:11.739Z,4.35
2022-08-26T02:14:46.666Z,4.93
2022-08-26T02:17:15.697Z,9.93
2022-08-26T02:19:51.388Z,4.53
2022-08-26T02:22:24.703Z,8.45
2022-08-26T02:24:58.565Z,9.20
2022-08-26T02:27:32.841Z,9.23
2022-08-26T02:30:11.093Z,7.88
2022-08-26T02:32:40.316Z,5.97
2022-08-26T02:35:11.174Z,11.38
2022-08-26T02:37:39.765Z,13.95
2022-08-26T02:40:15.887Z,13.13
2022-08-26T02:42:44.577Z,6.73
2022-08-26T02:45:13.468Z,5.40
2022-08-26T02:47:45.954Z,8.10
2022-08-26T02:50:15.737Z,5.15
2022-08-26T02:52:45.292Z,9.00
2022-08-26T02:55:15.716Z,4.88
2022-08-26T02:57:44.183Z,11.00
2022-08-26T03:00:16.345Z,6.57
2022-08-26T03:02:45.076Z,7.80
2022-08-26T03:05:14.244Z,5.95
2022-08-26T03:07:45.183Z,21.20
2022-08-26T03:10:16.366Z,15.63
2022-08-26T03:12:47.453Z,14.20
2022-08-26T03:15:19.400Z,7.00
2022-08-26T03:17:50.239Z,16.67
2022-08-26T03:20:19.516Z,10.68
2022-08-26T03:22:49.773Z,10.43
2022-08-26T03:25:22.449Z,11.98
2022-08-26T03:27:52.365Z,12.30
2022-08-26T03:30:38.725Z,7.85
2022-08-26T03:33:15.020Z,6.47
2022-08-26T03:35:45.697Z,5.57
2022-08-26T03:38:14.482Z,4.97
2022-08-26T03:40:44.830Z,9.25
2022-08-26T03:43:15.939Z,10.77
2022-08-26T03:45:44.772Z,7.45
2022-08-26T03:48:14.447Z,12.52
2022-08-26T03:50:43.845Z,6.63
2022-08-26T03:53:12.861Z,5.65
2022-08-26T03:55:43.641Z,6.57
2022-08-26T03:58:12.518Z,11.82
2022-08-26T04:00:40.899Z,7.28
2022-08-26T04:03:14.740Z,11.63
2022-08-26T04:05:46.789Z,14.55
2022-08-26T04:08:15.383Z,6.53
2022-08-26T04:10:45.172Z,10.13
2022-08-26T04:13:13.776Z,6.25
2022-08-26T04:15:42.220Z,7.85
2022-08-26T04:18:10.677Z,7.78
2022-08-26T04:20:39.352Z,10.52
2022-08-26T04:23:08.075Z,14.93
2022-08-26T04:25:36.549Z,7.13
2022-08-26T04:28:10.593Z,8.65
2022-08-26T04:30:39.565Z,10.40
2022-08-26T04:33:13.183Z,8.98
2022-08-26T04:35:44.014Z,8.20
2022-08-26T04:38:12.863Z,11.48
2022-08-26T04:40:46.755Z,7.97
2022-08-26T04:43:16.817Z,6.53
2022-08-26T04:45:45.260Z,8.40
2022-08-26T04:48:16.828Z,9.82
2022-08-26T04:50:45.407Z,7.35
2022-08-26T04:53:18.112Z,13.85
2022-08-26T04:55:46.667Z,12.57
2022-08-26T04:58:20.821Z,6.78
2022-08-26T05:00:51.531Z,8.30
2022-08-26T05:03:20.885Z,9.02
2022-08-26T05:05:50.893Z,6.38
2022-08-26T05:08:22.532Z,5.53
2022-08-26T05:10:55.899Z,6.78
2022-08-26T05:13:28.590Z,6.97
2022-08-26T05:16:00.557Z,8.68
2022-08-26T05:18:29.984Z,6.70
2022-08-26T05:20:58.420Z,5.88
2022-08-26T05:23:27.148Z,5.60
2022-08-26T05:25:59.245Z,7.82
2022-08-26T05:28:31.203Z,8.15
2022-08-26T05:31:00.553Z,6.78
2022-08-26T05:33:29.424Z,7.63
2022-08-26T05:35:57.924Z,11.90
2022-08-26T05:38:30.316Z,15.23
2022-08-26T05:40:59.000Z,7.03
2022-08-26T05:43:29.716Z,9.60
2022-08-26T05:46:07.751Z,13.23
2022-08-26T05:48:36.373Z,10.45
2022-08-26T05:51:08.781Z,9.15
2022-08-26T05:53:38.649Z,7.57
2022-08-26T05:56:09.327Z,6.47
2022-08-26T05:58:42.426Z,5.22
2022-08-26T06:01:17.429Z,7.63
2022-08-26T06:03:50.053Z,6.25
2022-08-26T06:06:27.212Z,14.05
2022-08-26T06:08:59.530Z,6.43
2022-08-26T06:11:30.562Z,6.72
2022-08-26T06:14:04.356Z,10.23
2022-08-26T06:16:36.301Z,8.10
2022-08-26T06:19:10.747Z,8.32
2022-08-26T06:21:41.543Z,18.35
2022-08-26T06:24:30.491Z,10.27
2022-08-26T06:27:02.160Z,5.43
2022-08-26T06:29:36.140Z,6.93
2022-08-26T06:32:06.778Z,7.38
2022-08-26T06:34:35.389Z,5.60
2022-08-26T06:37:06.466Z,11.20
2022-08-26T06:39:35.317Z,11.43
2022-08-26T06:42:08.876Z,10.98
2022-08-26T06:44:41.662Z,6.07
2022-08-26T06:47:13.285Z,7.93
2022-08-26T06:49:41.672Z,9.32
2022-08-26T06:52:10.084Z,5.55
2022-08-26T06:54:43.054Z,5.40
2022-08-26T06:57:13.118Z,8.05
2022-08-26T06:59:44.138Z,11.82
2022-08-26T07:02:13.433Z,17.65
2022-08-26T07:04:42.318Z,11.45
2022-08-26T07:07:14.759Z,6.85
2022-08-26T07:09:43.467Z,11.68
2022-08-26T07:12:11.842Z,8.40
2022-08-26T07:14:40.356Z,11.50
2022-08-26T07:17:14.335Z,5.07
2022-08-26T07:19:43.241Z,13.45
2022-08-26T07:22:11.601Z,5.70
2022-08-26T07:24:42.356Z,6.90
2022-08-26T07:27:15.110Z,7.65
2022-08-26T07:29:44.795Z,9.55
2022-08-26T07:32:22.945Z,7.57
2022-08-26T07:34:51.785Z,7.13
2022-08-26T07:37:20.413Z,6.93
2022-08-26T07:39:48.861Z,6.32
2022-08-26T07:42:19.669Z,8.88
2022-08-26T07:44:48.748Z,9.25
2022-08-26T07:47:24.760Z,7.78
2022-08-26T07:49:56.616Z,15.13
2022-08-26T07:52:27.549Z,10.57
2022-08-26T07:54:58.093Z,5.07
2022-08-26T07:57:27.155Z,5.97
2022-08-26T07:59:56.673Z,5.65
2022-08-26T08:02:28.088Z,10.77
2022-08-26T08:04:57.862Z,9.27
2022-08-26T08:07:44.286Z,5.78
2022-08-26T08:10:17.931Z,9.20
2022-08-26T08:12:48.064Z,9.32
2022-08-26T08:15:20.111Z,5.65
2022-08-26T08:17:51.560Z,8.45
2022-08-26T08:20:20.849Z,5.28
2022-08-26T08:22:49.965Z,10.32
2022-08-26T08:25:18.520Z,5.15
2022-08-26T08:27:48.614Z,9.35
2022-08-26T08:30:23.039Z,5.03
2022-08-26T08:32:53.524Z,8.90
2022-08-26T08:35:26.250Z,7.47
2022-08-26T08:37:56.577Z,5.95
2022-08-26T08:40:27.844Z,6.05
2022-08-26T08:43:04.826Z,9.07
2022-08-26T08:45:37.730Z,16.75
2022-08-26T08:48:15.231Z,9.88
2022-08-26T08:50:48.373Z,6.80
2022-08-26T08:53:22.656Z,7.47
2022-08-26T08:56:05.529Z,7.47
2022-08-26T08:58:51.470Z,5.88
2022-08-26T09:01:31.716Z,6.60
2022-08-26T09:04:24.941Z,10.00
2022-08-26T09:06:59.072Z,13.40
2022-08-26T09:12:03.216Z,16.05
2022-08-26T09:14:32.949Z,7.78
2022-08-26T09:17:14.077Z,7.30
2022-08-26T09:19:50.476Z,16.73
2022-08-26T09:22:31.004Z,12.10
2022-08-26T09:24:59.684Z,7.65
2022-08-26T09:27:44.078Z,12.60
2022-08-26T09:30:16.566Z,15.00
2022-08-26T09:33:01.177Z,10.32
2022-08-26T09:35:34.585Z,6.18
2022-08-26T09:38:03.732Z,14.68
2022-08-26T09:40:35.244Z,10.77
2022-08-26T09:43:22.867Z,9.43
2022-08-26T09:45:59.284Z,6.55
2022-08-26T09:48:35.534Z,13.45
2022-08-26T09:51:24.073Z,8.27
2022-08-26T09:53:56.140Z,7.00
2022-08-26T09:56:29.946Z,9.88
2022-08-26T09:58:59.665Z,8.43
2022-08-26T10:01:34.889Z,7.20
2022-08-26T10:04:11.322Z,7.07
2022-08-26T10:06:56.928Z,6.93
2022-08-26T10:09:28.116Z,8.02
2022-08-26T10:12:03.457Z,13.35
2022-08-26T10:14:39.772Z,12.23
2022-08-26T10:17:15.850Z,8.23
2022-08-26T10:19:56.744Z,16.48
2022-08-26T10:22:34.154Z,12.02
2022-08-26T10:25:09.233Z,4.97
2022-08-26T10:27:49.744Z,6.15
2022-08-26T10:30:28.638Z,7.40
2022-08-26T10:33:03.462Z,6.30
2022-08-26T10:35:34.797Z,4.30
2022-08-26T10:38:13.131Z,5.82
2022-08-26T10:40:56.156Z,8.45
2022-08-26T10:43:31.081Z,6.40
2022-08-26T10:46:04.278Z,13.52
2022-08-26T10:48:43.491Z,6.60
2022-08-26T10:51:13.640Z,14.20
2022-08-26T10:53:55.938Z,8.98
2022-08-26T10:56:44.597Z,4.70
2022-08-26T10:59:26.513Z,4.43
2022-08-26T11:02:06.343Z,7.28
2022-08-26T11:04:51.704Z,6.47
2022-08-26T11:07:42.885Z,16.58
2022-08-26T11:11:01.093Z,7.68
2022-08-26T11:14:04.358Z,5.70
2022-08-26T11:16:43.574Z,8.18
2022-08-26T11:19:58.765Z,7.55
2022-08-26T11:22:31.061Z,7.82
2022-08-26T11:25:11.398Z,4.93
2022-08-26T11:28:07.585Z,3.90
2022-08-26T11:30:43.861Z,8.40
2022-08-26T11:33:32.724Z,6.93
2022-08-26T11:36:01.304Z,12.95
2022-08-26T11:38:45.167Z,6.18
2022-08-26T11:41:21.824Z,6.95
2022-08-26T11:43:52.258Z,8.82
2022-08-26T11:46:27.776Z,3.25
2022-08-26T11:49:05.214Z,6.53
2022-08-26T11:51:40.186Z,6.38
2022-08-26T11:54:16.274Z,13.20
2022-08-26T11:56:48.056Z,5.40
2022-08-26T11:59:25.184Z,7.15
2022-08-26T12:01:55.649Z,7.70
2022-08-26T12:04:31.236Z,6.93
2022-08-26T12:07:03.038Z,9.20
2022-08-26T12:09:37.827Z,8.35
2022-08-26T12:12:17.060Z,6.25
2022-08-26T12:14:46.068Z,7.68
2022-08-26T12:17:18.781Z,5.22
2022-08-26T12:19:47.817Z,9.13
2022-08-26T12:22:23.112Z,4.68
2022-08-26T12:24:58.472Z,17.58
2022-08-26T12:27:29.228Z,10.13
2022-08-26T12:30:10.107Z,10.57
2022-08-26T12:32:57.472Z,7.97
2022-08-26T12:35:28.788Z,6.03
2022-08-26T12:37:58.708Z,9.98
2022-08-26T12:40:41.915Z,6.35
2022-08-26T12:43:13.525Z,6.38
2022-08-26T12:45:45.436Z,6.65
2022-08-26T12:48:24.638Z,8.38
2022-08-26T12:50:54.159Z,10.85
2022-08-26T12:53:24.887Z,11.82
2022-08-26T12:55:57.229Z,4.72
2022-08-26T12:58:30.078Z,6.82
2022-08-26T13:01:20.235Z,8.90
2022-08-26T13:03:49.802Z,10.52
2022-08-26T13:06:31.234Z,4.82
2022-08-26T13:09:02.105Z,11.20
2022-08-26T13:11:35.562Z,9.05
2022-08-26T13:14:09.380Z,4.20
2022-08-26T13:16:41.640Z,11.95
2022-08-26T13:19:13.080Z,9.23
2022-08-26T13:21:47.980Z,11.80
2022-08-26T13:24:20.965Z,5.30
2022-08-26T13:26:51.526Z,8.13
2022-08-26T13:29:20.721Z,5.97
2022-08-26T13:31:49.781Z,8.52
2022-08-26T13:34:21.533Z,5.50
2022-08-26T13:36:51.741Z,7.63
2022-08-26T13:39:21.229Z,10.75
2022-08-26T13:41:51.480Z,13.82
2022-08-26T13:44:20.326Z,6.68
2022-08-26T13:46:49.040Z,4.10
2022-08-26T13:49:17.556Z,4.68
2022-08-26T13:51:46.042Z,4.28
2022-08-26T13:54:14.406Z,3.88
2022-08-26T13:56:42.790Z,4.10
2022-08-26T13:59:12.629Z,4.32
2022-08-26T14:01:41.029Z,7.45
2022-08-26T14:04:09.581Z,7.07
2022-08-26T14:06:38.236Z,6.88
2022-08-26T14:09:06.823Z,4.32
2022-08-26T14:11:50.853Z,5.35
2022-08-26T14:14:25.109Z,3.03
2022-08-26T14:17:00.128Z,7.75
2022-08-26T14:19:31.063Z,4.03
2022-08-26T14:22:01.400Z,6.35
2022-08-26T14:24:30.156Z,9.57
2022-08-26T14:26:58.593Z,11.18
2022-08-26T14:29:28.670Z,9.88
2022-08-26T14:31:58.919Z,13.40
2022-08-26T14:34:27.721Z,15.23
2022-08-26T14:36:56.084Z,7.22
2022-08-26T14:39:24.524Z,6.85
2022-08-26T14:41:56.746Z,6.65
2022-08-26T14:44:31.346Z,13.85
2022-08-26T14:47:03.416Z,7.32
2022-08-26T14:49:32.358Z,10.40
2022-08-26T14:52:00.780Z,10.25
2022-08-26T14:54:29.361Z,7.32
2022-08-26T14:57:02.042Z,9.77
2022-08-26T14:59:36.145Z,11.32
2022-08-26T15:02:06.178Z,15.32
2022-08-26T15:04:34.985Z,14.68
2022-08-26T15:07:04.865Z,14.60
2022-08-26T15:09:36.828Z,13.48
2022-08-26T15:12:06.560Z,11.00
2022-08-26T15:14:36.349Z,13.82
2022-08-26T15:17:05.317Z,10.35
2022-08-26T15:19:33.966Z,19.80
2022-08-26T15:22:02.363Z,12.70
2022-08-26T15:24:30.732Z,15.00
2022-08-26T15:26:59.252Z,16.15
2022-08-26T15:29:27.836Z,14.02
2022-08-26T15:31:57.733Z,22.80
2022-08-26T15:34:26.854Z,15.93
2022-08-26T15:36:55.940Z,22.63
2022-08-26T15:39:24.757Z,19.15
2022-08-26T15:41:53.533Z,19.70
2022-08-26T15:44:21.985Z,19.77
2022-08-26T15:46:55.348Z,20.15
2022-08-26T15:49:28.510Z,23.95
2022-08-26T15:51:57.132Z,23.45
2022-08-26T15:54:25.917Z,28.40
2022-08-26T15:56:54.516Z,31.92
2022-08-26T15:59:23.448Z,36.55
2022-08-26T16:01:53.118Z,35.55
2022-08-26T16:04:21.957Z,37.95
2022-08-26T16:06:52.182Z,33.80
2022-08-26T16:09:24.322Z,30.35
2022-08-26T16:11:53.295Z,25.42
2022-08-26T16:14:22.480Z,29.63
2022-08-26T16:16:51.566Z,25.52
2022-08-26T16:19:20.067Z,24.63
2022-08-26T16:21:50.693Z,26.75
2022-08-26T16:24:24.860Z,23.30
2022-08-26T16:26:55.354Z,24.02
2022-08-26T16:29:24.492Z,25.30
2022-08-26T16:31:54.611Z,22.35
2022-08-26T16:34:23.317Z,24.17
2022-08-26T16:36:53.063Z,28.05
2022-08-26T16:39:22.787Z,25.58
2022-08-26T16:41:51.417Z,23.42
2022-08-26T16:44:19.832Z,25.85
2022-08-26T16:46:48.297Z,22.00
2022-08-26T16:49:16.991Z,27.15
2022-08-26T16:51:45.505Z,31.65
2022-08-26T16:54:14.553Z,27.85
2022-08-26T16:56:44.297Z,31.08
2022-08-26T16:59:12.925Z,24.98
2022-08-26T17:01:41.635Z,21.92
2022-08-26T17:04:10.125Z,29.77
2022-08-26T17:06:38.550Z,32.50
2022-08-26T17:09:07.240Z,27.27
2022-08-26T17:11:36.019Z,27.50
2022-08-26T17:14:06.590Z,23.88
2022-08-26T17:16:35.344Z,28.58
2022-08-26T17:19:05.537Z,23.13
2022-08-26T17:21:35.719Z,23.30
2022-08-26T17:24:05.899Z,20.13
2022-08-26T17:26:34.498Z,18.33
2022-08-26T17:29:03.174Z,18.77
2022-08-26T17:31:33.089Z,21.08
2022-08-26T17:34:01.504Z,22.60
2022-08-26T17:36:30.061Z,21.98
2022-08-26T17:38:59.533Z,24.17
2022-08-26T17:41:28.785Z,28.55
2022-08-26T17:43:57.486Z,18.60
2022-08-26T17:46:26.602Z,19.08
2022-08-26T17:48:56.849Z,16.80
2022-08-26T17:51:25.396Z,15.57
2022-08-26T17:53:54.002Z,17.58
2022-08-26T17:56:25.477Z,13.63
2022-08-26T17:58:54.845Z,14.88
2022-08-26T18:01:27.559Z,15.10
2022-08-26T18:04:00.441Z,14.65
2022-08-26T18:06:30.291Z,21.50
2022-08-26T18:08:59.429Z,13.93
2022-08-26T18:11:28.585Z,11.48
2022-08-26T18:13:56.948Z,27.75
2022-08-26T18:16:25.982Z,13.10
2022-08-26T18:18:55.921Z,13.63
2022-08-26T18:21:28.831Z,7.97
2022-08-26T18:23:57.806Z,7.13
2022-08-26T18:26:29.645Z,13.50
2022-08-26T18:28:58.443Z,14.85
2022-08-26T18:31:27.762Z,11.05
2022-08-26T18:34:00.197Z,11.18
2022-08-26T18:36:31.477Z,10.20
2022-08-26T18:39:00.570Z,11.70
2022-08-26T18:41:33.387Z,10.80
2022-08-26T18:44:01.960Z,13.55
2022-08-26T18:46:30.462Z,14.05
2022-08-26T18:49:00.337Z,9.18
2022-08-26T18:51:31.897Z,8.07
2022-08-26T18:54:02.487Z,15.15
2022-08-26T18:56:31.374Z,10.55
2022-08-26T18:59:00.097Z,13.73
2022-08-26T19:01:34.043Z,9.02
2022-08-26T19:04:06.501Z,17.85
2022-08-26T19:06:36.917Z,20.20
2022-08-26T19:09:08.908Z,9.82
2022-08-26T19:11:38.358Z,9.60
2022-08-26T19:14:14.207Z,12.50
2022-08-26T19:16:44.808Z,9.77
2022-08-26T19:19:15.376Z,10.68
2022-08-26T19:21:44.117Z,9.73
2022-08-26T19:24:17.359Z,12.48
2022-08-26T19:26:48.932Z,9.07
2022-08-26T19:29:20.517Z,10.63
2022-08-26T19:31:49.048Z,10.55
2022-08-26T19:34:20.686Z,21.15
2022-08-26T19:36:50.500Z,20.73
2022-08-26T19:39:18.845Z,9.65
2022-08-26T19:41:47.805Z,12.65
2022-08-26T19:44:51.235Z,18.00
2022-08-26T19:47:19.668Z,14.25
2022-08-26T19:49:53.376Z,19.52
2022-08-26T19:52:22.583Z,16.95
2022-08-26T19:54:58.501Z,9.90
2022-08-26T19:57:27.226Z,13.02
2022-08-26T19:59:55.678Z,15.65
2022-08-26T20:02:24.541Z,14.82
2022-08-26T20:04:54.424Z,26.60
2022-08-26T20:07:23.084Z,12.75
2022-08-26T20:09:51.558Z,15.30
2022-08-26T20:12:20.315Z,17.42
2022-08-26T20:14:48.725Z,17.17
2022-08-26T20:17:17.389Z,24.05
2022-08-26T20:20:03.469Z,13.30
2022-08-26T20:22:34.122Z,10.40
2022-08-26T20:25:02.828Z,12.90
2022-08-26T20:27:38.035Z,12.55
2022-08-26T20:30:10.262Z,18.25
2022-08-26T20:32:39.734Z,22.75
2022-08-26T20:35:12.028Z,19.05
2022-08-26T20:37:42.908Z,17.73
2022-08-26T20:40:13.891Z,11.88
2022-08-26T20:42:42.493Z,16.48
2022-08-26T20:45:11.905Z,16.75
2022-08-26T20:47:40.888Z,15.60
2022-08-26T20:50:10.120Z,21.80
2022-08-26T20:52:38.559Z,29.08
2022-08-26T20:55:09.921Z,16.05
2022-08-26T20:57:38.580Z,14.43
2022-08-26T21:00:08.465Z,14.80
2022-08-26T21:02:37.439Z,15.90
2022-08-26T21:05:06.991Z,17.38
2022-08-26T21:07:35.958Z,13.73
2022-08-26T21:10:04.954Z,20.50
2022-08-26T21:12:35.479Z,10.38
2022-08-26T21:15:04.620Z,16.77
2022-08-26T21:17:33.245Z,14.32
2022-08-26T21:20:02.125Z,15.52
2022-08-26T21:22:30.821Z,13.07
2022-08-26T21:24:59.180Z,13.93
2022-08-26T21:27:27.888Z,17.38
2022-08-26T21:29:58.116Z,14.68
2022-08-26T21:32:26.859Z,16.98
2022-08-26T21:34:57.204Z,14.13
2022-08-26T21:37:26.793Z,16.73
2022-08-26T21:39:58.903Z,14.70
2022-08-26T21:42:32.956Z,19.52
2022-08-26T21:45:04.188Z,12.17
2022-08-26T21:47:32.887Z,14.88
2022-08-26T21:50:01.553Z,10.68
2022-08-26T21:52:30.232Z,12.23
2022-08-26T21:54:59.820Z,21.48
2022-08-26T21:57:29.987Z,10.82
2022-08-26T21:59:58.976Z,11.70
2022-08-26T22:02:29.145Z,11.23
2022-08-26T22:04:57.532Z,12.73
2022-08-26T22:07:26.090Z,10.63
2022-08-26T22:09:54.741Z,16.27
2022-08-26T22:12:23.153Z,9.23
2022-08-26T22:14:51.604Z,9.55
2022-08-26T22:17:19.960Z,13.70
2022-08-26T22:19:50.087Z,14.10
2022-08-26T22:22:18.581Z,9.63
2022-08-26T22:24:46.969Z,13.73
2022-08-26T22:27:15.824Z,10.27
2022-08-26T22:29:46.490Z,13.57
2022-08-26T22:32:15.376Z,19.52
2022-08-26T22:34:44.046Z,20.75
2022-08-26T22:37:13.873Z,21.90
2022-08-26T22:39:42.572Z,16.02
2022-08-26T22:42:10.980Z,15.05
2022-08-26T22:44:41.171Z,13.25
2022-08-26T22:47:24.989Z,16.08
2022-08-26T22:49:53.437Z,12.77
2022-08-26T22:52:23.168Z,11.95
2022-08-26T22:54:52.005Z,13.35
2022-08-26T22:57:20.797Z,11.23
2022-08-26T22:59:49.557Z,9.55
2022-08-26T23:02:18.188Z,8.52
2022-08-26T23:04:46.652Z,12.57
2022-08-26T23:07:15.041Z,17.98
2022-08-26T23:09:45.098Z,12.25
2022-08-26T23:12:13.718Z,16.08
2022-08-26T23:14:43.886Z,7.60
2022-08-26T23:17:14.322Z,7.90
2022-08-26T23:19:42.986Z,11.20
2022-08-26T23:22:11.573Z,11.65
2022-08-26T23:24:40.869Z,8.10
2022-08-26T23:27:11.232Z,14.85
2022-08-26T23:29:39.820Z,9.32
2022-08-26T23:32:08.359Z,12.52
2022-08-26T23:34:54.289Z,9.20
2022-08-26T23:37:23.261Z,13.40
2022-08-26T23:39:54.417Z,16.98
2022-08-26T23:42:24.336Z,8.55
2022-08-26T23:44:56.616Z,7.55
2022-08-26T23:47:25.173Z,11.68
2022-08-26T23:49:53.928Z,9.02
2022-08-26T23:52:39.866Z,6.13
2022-08-26T23:55:10.640Z,11.57
2022-08-26T23:57:40.516Z,9.30
